createdAt,value
2022-10-24T00:01:20.535Z,19.87
2022-10-24T00:03:48.028Z,19.90
2022-10-24T00:06:15.313Z,19.92
2022-10-24T00:08:43.081Z,19.88
2022-10-24T00:11:16.548Z,19.85
2022-10-24T00:13:43.380Z,19.94
2022-10-24T00:16:10.735Z,19.88
2022-10-24T00:18:37.956Z,19.89
2022-10-24T00:21:05.010Z,19.92
2022-10-24T00:23:31.914Z,19.88
2022-10-24T00:26:01.827Z,19.84
2022-10-24T00:28:29.896Z,19.86
2022-10-24T00:30:57.263Z,19.86
2022-10-24T00:33:25.374Z,19.87
2022-10-24T00:35:52.136Z,19.84
2022-10-24T00:38:18.914Z,19.81
2022-10-24T00:40:45.595Z,19.86
2022-10-24T00:43:17.466Z,19.82
2022-10-24T00:45:56.095Z,19.85
2022-10-24T00:48:33.638Z,19.88
2022-10-24T00:51:24.688Z,19.83
2022-10-24T00:56:32.333Z,19.85
2022-10-24T00:59:01.649Z,19.90
2022-10-24T01:01:29.729Z,19.92
2022-10-24T01:03:56.434Z,19.88
2022-10-24T01:06:40.436Z,19.83
2022-10-24T01:09:07.128Z,19.95
2022-10-24T01:11:40.409Z,20.07
2022-10-24T01:14:31.223Z,20.06
2022-10-24T01:17:12.448Z,20.05
2022-10-24T01:19:47.930Z,19.93
2022-10-24T01:22:23.162Z,19.92
2022-10-24T01:25:17.390Z,19.94
2022-10-24T01:27:49.877Z,19.95
2022-10-24T01:30:17.491Z,19.89
2022-10-24T01:32:48.126Z,19.85
2022-10-24T01:35:37.082Z,19.89
2022-10-24T01:38:14.799Z,19.84
2022-10-24T01:40:55.840Z,19.86
2022-10-24T01:43:27.259Z,19.83
2022-10-24T01:46:00.550Z,19.87
2022-10-24T01:48:30.268Z,19.78
2022-10-24T01:50:59.908Z,19.87
2022-10-24T01:53:29.279Z,19.86
2022-10-24T01:55:57.099Z,19.83
2022-10-24T01:58:24.661Z,19.81
2022-10-24T02:00:55.053Z,19.82
2022-10-24T02:03:32.302Z,19.88
2022-10-24T02:06:07.074Z,19.90
2022-10-24T02:08:40.905Z,19.90
2022-10-24T02:11:08.895Z,19.89
2022-10-24T02:13:47.731Z,19.93
2022-10-24T02:16:18.801Z,19.95
2022-10-24T02:18:47.568Z,19.90
2022-10-24T02:21:20.587Z,19.97
2022-10-24T02:24:20.882Z,19.78
2022-10-24T02:26:53.366Z,19.96
2022-10-24T02:29:43.414Z,20.02
2022-10-24T02:32:14.852Z,19.99
2022-10-24T02:34:44.199Z,20.00
2022-10-24T02:37:16.116Z,20.02
2022-10-24T02:39:47.242Z,20.14
2022-10-24T02:42:14.810Z,20.18
2022-10-24T02:44:43.745Z,20.24
2022-10-24T02:47:13.830Z,20.30
2022-10-24T02:49:41.132Z,20.35
2022-10-24T02:52:08.145Z,20.38
2022-10-24T02:54:34.954Z,20.39
2022-10-24T02:57:03.370Z,20.46
2022-10-24T02:59:30.576Z,20.39
2022-10-24T03:01:57.578Z,20.46
2022-10-24T03:04:24.338Z,20.45
2022-10-24T03:06:51.080Z,20.42
2022-10-24T03:09:17.704Z,20.34
2022-10-24T03:11:44.422Z,20.29
2022-10-24T03:14:11.093Z,20.23
2022-10-24T03:16:37.800Z,20.23
2022-10-24T03:19:04.465Z,20.16
2022-10-24T03:21:31.200Z,20.08
2022-10-24T03:23:57.930Z,20.06
2022-10-24T03:26:24.769Z,20.03
2022-10-24T03:28:51.465Z,19.98
2022-10-24T03:31:18.096Z,19.99
2022-10-24T03:33:44.736Z,19.96
2022-10-24T03:36:11.407Z,19.89
2022-10-24T03:38:38.049Z,19.85
2022-10-24T03:41:05.212Z,19.82
2022-10-24T03:43:31.910Z,19.84
2022-10-24T03:45:59.517Z,19.80
2022-10-24T03:48:26.947Z,19.80
2022-10-24T03:50:53.881Z,19.75
2022-10-24T03:53:20.557Z,19.74
2022-10-24T03:55:47.207Z,19.72
2022-10-24T03:58:13.817Z,19.69
2022-10-24T04:00:41.435Z,19.69
2022-10-24T04:03:09.619Z,19.68
2022-10-24T04:05:36.818Z,19.68
2022-10-24T04:08:03.717Z,19.70
2022-10-24T04:10:30.382Z,19.71
2022-10-24T04:12:57.125Z,19.67
2022-10-24T04:15:24.046Z,19.68
2022-10-24T04:17:50.772Z,19.67
2022-10-24T04:20:20.084Z,19.70
2022-10-24T04:22:47.643Z,19.65
2022-10-24T04:25:15.398Z,19.65
2022-10-24T04:27:42.305Z,19.70
2022-10-24T04:30:16.352Z,19.65
2022-10-24T04:32:44.453Z,19.71
2022-10-24T04:35:11.997Z,19.72
2022-10-24T04:37:38.644Z,19.71
2022-10-24T04:40:06.206Z,19.66
2022-10-24T04:42:33.907Z,19.63
2022-10-24T04:45:00.601Z,19.59
2022-10-24T04:47:27.265Z,19.55
2022-10-24T04:49:53.937Z,19.49
2022-10-24T04:52:20.740Z,19.45
2022-10-24T04:54:47.366Z,19.38
2022-10-24T04:57:14.075Z,19.38
2022-10-24T04:59:40.774Z,19.35
2022-10-24T05:02:07.676Z,19.35
2022-10-24T05:04:34.389Z,19.39
2022-10-24T05:07:01.522Z,19.29
2022-10-24T05:09:28.244Z,19.35
2022-10-24T05:11:58.303Z,19.32
2022-10-24T05:14:25.084Z,19.37
2022-10-24T05:16:51.941Z,19.43
2022-10-24T05:19:19.607Z,19.41
2022-10-24T05:21:46.501Z,19.40
2022-10-24T05:24:13.452Z,19.37
2022-10-24T05:26:40.115Z,19.39
2022-10-24T05:31:34.853Z,19.31
2022-10-24T05:34:01.592Z,19.35
2022-10-24T05:36:28.251Z,19.32
2022-10-24T05:38:54.973Z,19.32
2022-10-24T05:41:21.605Z,19.31
2022-10-24T05:43:48.240Z,19.31
2022-10-24T05:46:14.850Z,19.28
2022-10-24T05:48:41.515Z,19.27
2022-10-24T05:51:08.119Z,19.22
2022-10-24T05:53:34.793Z,19.22
2022-10-24T05:56:01.632Z,19.21
2022-10-24T05:58:28.270Z,19.23
2022-10-24T06:00:54.935Z,19.20
2022-10-24T06:03:22.717Z,19.25
2022-10-24T06:05:50.429Z,19.29
2022-10-24T06:08:17.385Z,19.23
2022-10-24T06:10:49.749Z,19.25
2022-10-24T06:13:17.796Z,19.25
2022-10-24T06:15:44.779Z,19.29
2022-10-24T06:18:11.536Z,19.33
2022-10-24T06:20:38.454Z,19.34
2022-10-24T06:23:05.114Z,19.25
2022-10-24T06:25:31.865Z,19.27
2022-10-24T06:27:58.635Z,19.28
2022-10-24T06:30:25.384Z,19.33
2022-10-24T06:32:52.190Z,19.33
2022-10-24T06:35:19.571Z,19.42
2022-10-24T06:37:48.206Z,19.41
2022-10-24T06:40:16.863Z,19.44
2022-10-24T06:42:43.637Z,19.50
2022-10-24T06:45:11.089Z,19.56
2022-10-24T06:47:37.730Z,19.62
2022-10-24T06:50:05.528Z,19.67
2022-10-24T06:52:32.531Z,19.73
2022-10-24T06:54:59.150Z,19.82
2022-10-24T06:57:26.022Z,19.95
2022-10-24T06:59:53.326Z,20.02
2022-10-24T07:02:20.231Z,20.12
2022-10-24T07:04:46.930Z,20.21
2022-10-24T07:07:18.855Z,20.50
2022-10-24T07:09:45.728Z,20.47
2022-10-24T07:12:12.580Z,20.50
2022-10-24T07:14:39.211Z,20.53
2022-10-24T07:17:05.925Z,20.60
2022-10-24T07:19:35.215Z,20.64
2022-10-24T07:22:04.366Z,20.69
2022-10-24T07:24:31.682Z,20.80
2022-10-24T07:26:58.339Z,20.93
2022-10-24T07:29:25.110Z,21.04
2022-10-24T07:31:51.886Z,21.22
2022-10-24T07:34:18.690Z,21.45
2022-10-24T07:36:45.426Z,21.55
2022-10-24T07:39:13.402Z,21.77
2022-10-24T07:41:41.653Z,21.91
2022-10-24T07:44:08.545Z,22.12
2022-10-24T07:46:35.293Z,22.25
2022-10-24T07:49:01.907Z,22.23
2022-10-24T07:51:29.731Z,22.19
2022-10-24T07:53:58.133Z,22.14
2022-10-24T07:56:25.105Z,22.01
2022-10-24T07:58:52.003Z,22.02
2022-10-24T08:01:23.050Z,22.01
2022-10-24T08:03:50.317Z,21.92
2022-10-24T08:06:20.383Z,22.21
2022-10-24T08:08:47.281Z,22.48
2022-10-24T08:11:19.404Z,22.81
2022-10-24T08:13:46.087Z,23.75
2022-10-24T08:16:14.613Z,24.76
2022-10-24T08:18:41.238Z,25.34
2022-10-24T08:21:13.628Z,26.01
2022-10-24T08:23:43.887Z,26.53
2022-10-24T08:26:13.793Z,27.10
2022-10-24T08:28:41.396Z,27.40
2022-10-24T08:31:11.736Z,27.24
2022-10-24T08:33:38.870Z,27.54
2022-10-24T08:36:15.328Z,27.93
2022-10-24T08:38:41.912Z,28.37
2022-10-24T08:41:15.853Z,28.85
2022-10-24T08:43:42.954Z,29.63
2022-10-24T08:46:32.635Z,30.97
2022-10-24T08:49:28.433Z,32.61
2022-10-24T08:52:07.120Z,33.34
2022-10-24T08:54:39.154Z,34.53
2022-10-24T08:57:07.290Z,34.76
2022-10-24T08:59:36.263Z,36.25
2022-10-24T09:02:17.461Z,37.24
2022-10-24T09:04:51.548Z,38.48
2022-10-24T09:07:21.741Z,39.31
2022-10-24T09:10:03.052Z,38.80
2022-10-24T09:12:29.725Z,38.84
2022-10-24T09:14:59.508Z,38.52
2022-10-24T09:17:34.703Z,38.18
2022-10-24T09:20:19.868Z,39.21
2022-10-24T09:22:47.338Z,39.84
2022-10-24T09:25:21.731Z,40.34
2022-10-24T09:27:49.329Z,38.62
2022-10-24T09:30:20.212Z,37.46
2022-10-24T09:32:47.948Z,37.21
2022-10-24T09:35:22.504Z,36.98
2022-10-24T09:37:58.095Z,37.11
2022-10-24T09:40:31.425Z,38.73
2022-10-24T09:43:19.246Z,39.24
2022-10-24T09:45:49.041Z,39.81
2022-10-24T09:48:25.882Z,39.70
2022-10-24T09:50:56.718Z,39.71
2022-10-24T09:53:26.153Z,40.31
2022-10-24T09:55:58.187Z,40.35
2022-10-24T09:58:32.291Z,39.78
2022-10-24T10:01:20.705Z,38.44
2022-10-24T10:04:07.585Z,36.60
2022-10-24T10:06:42.974Z,35.13
2022-10-24T10:09:16.904Z,33.73
2022-10-24T10:11:49.366Z,32.15
2022-10-24T10:14:24.356Z,31.64
2022-10-24T10:17:02.754Z,31.47
2022-10-24T10:19:35.121Z,31.31
2022-10-24T10:22:21.330Z,30.87
2022-10-24T10:24:48.616Z,30.81
2022-10-24T10:27:35.391Z,32.15
2022-10-24T10:30:17.130Z,31.78
2022-10-24T10:32:57.573Z,30.93
2022-10-24T10:35:48.997Z,30.50
2022-10-24T10:38:45.644Z,29.73
2022-10-24T10:41:21.389Z,29.02
2022-10-24T10:44:05.314Z,28.30
2022-10-24T10:46:37.151Z,28.01
2022-10-24T10:49:24.553Z,27.60
2022-10-24T10:52:02.465Z,27.70
2022-10-24T10:54:58.277Z,27.67
2022-10-24T10:57:58.257Z,28.25
2022-10-24T11:00:59.013Z,28.46
2022-10-24T11:03:56.131Z,28.50
2022-10-24T11:06:38.444Z,29.20
2022-10-24T11:09:14.738Z,31.39
2022-10-24T11:11:46.963Z,33.98
2022-10-24T11:14:28.871Z,36.43
2022-10-24T11:17:01.628Z,37.34
2022-10-24T11:19:56.745Z,37.26
2022-10-24T11:22:33.817Z,37.31
2022-10-24T11:25:07.093Z,36.03
2022-10-24T11:27:52.333Z,35.90
2022-10-24T11:30:39.097Z,35.99
2022-10-24T11:33:14.452Z,36.77
2022-10-24T11:35:53.235Z,37.33
2022-10-24T11:38:25.832Z,38.22
2022-10-24T11:40:58.808Z,37.74
2022-10-24T11:43:36.510Z,38.09
2022-10-24T11:46:12.317Z,37.18
2022-10-24T11:48:56.258Z,35.33
2022-10-24T11:51:43.536Z,34.04
2022-10-24T11:54:22.698Z,32.23
2022-10-24T11:57:02.355Z,31.92
2022-10-24T11:59:30.583Z,30.56
2022-10-24T12:02:30.344Z,29.57
2022-10-24T12:05:14.572Z,28.92
2022-10-24T12:07:47.795Z,28.09
2022-10-24T12:10:45.551Z,27.67
2022-10-24T12:13:30.160Z,27.34
2022-10-24T12:16:02.616Z,27.40
2022-10-24T12:19:01.665Z,27.28
2022-10-24T12:21:37.853Z,26.77
2022-10-24T12:24:04.994Z,27.12
2022-10-24T12:26:35.733Z,26.88
2022-10-24T12:29:05.005Z,26.64
2022-10-24T12:31:33.164Z,26.93
2022-10-24T12:34:18.935Z,26.58
2022-10-24T12:37:11.121Z,26.76
2022-10-24T12:39:51.017Z,26.71
2022-10-24T12:42:19.247Z,26.91
2022-10-24T12:44:50.949Z,27.03
2022-10-24T12:47:29.562Z,27.30
2022-10-24T12:49:58.292Z,26.94
2022-10-24T12:52:30.993Z,26.84
2022-10-24T12:54:58.963Z,27.23
2022-10-24T12:57:37.234Z,27.39
2022-10-24T13:00:21.540Z,27.39
2022-10-24T13:02:59.917Z,27.88
2022-10-24T13:05:39.309Z,27.91
2022-10-24T13:08:48.148Z,27.55
2022-10-24T13:11:44.163Z,27.40
2022-10-24T13:14:22.860Z,27.15
2022-10-24T13:17:03.867Z,27.16
2022-10-24T13:19:31.301Z,27.44
2022-10-24T13:21:59.619Z,27.26
2022-10-24T13:24:35.969Z,26.95
2022-10-24T13:27:12.737Z,26.58
2022-10-24T13:29:39.818Z,26.70
2022-10-24T13:32:06.422Z,26.19
2022-10-24T13:34:52.356Z,26.12
2022-10-24T13:37:24.165Z,26.20
2022-10-24T13:39:55.218Z,26.24
2022-10-24T13:42:37.598Z,26.08
2022-10-24T13:45:33.629Z,25.91
2022-10-24T13:48:13.085Z,25.82
2022-10-24T13:51:00.938Z,25.70
2022-10-24T13:53:32.581Z,25.55
2022-10-24T13:56:05.193Z,25.68
2022-10-24T13:58:41.024Z,25.47
2022-10-24T14:01:22.708Z,25.56
2022-10-24T14:03:50.230Z,25.39
2022-10-24T14:06:24.520Z,25.42
2022-10-24T14:09:02.849Z,25.10
2022-10-24T14:11:33.664Z,25.35
2022-10-24T14:14:05.688Z,25.42
2022-10-24T14:16:35.434Z,25.51
2022-10-24T14:19:27.126Z,25.42
2022-10-24T14:21:57.922Z,25.43
2022-10-24T14:24:24.828Z,25.28
2022-10-24T14:26:54.054Z,25.08
2022-10-24T14:29:25.409Z,25.26
2022-10-24T14:31:58.588Z,25.34
2022-10-24T14:34:25.791Z,25.29
2022-10-24T14:36:53.382Z,25.28
2022-10-24T14:39:23.824Z,25.30
2022-10-24T14:41:52.462Z,25.08
2022-10-24T14:44:21.457Z,24.86
2022-10-24T14:47:21.660Z,24.61
2022-10-24T14:49:48.473Z,24.45
2022-10-24T14:52:18.487Z,24.21
2022-10-24T14:54:55.060Z,24.16
2022-10-24T14:57:23.006Z,24.21
2022-10-24T14:59:52.931Z,24.38
2022-10-24T15:02:37.522Z,24.33
2022-10-24T15:05:19.020Z,24.29
2022-10-24T15:08:02.795Z,24.33
2022-10-24T15:10:43.863Z,24.16
2022-10-24T15:13:10.530Z,24.32
2022-10-24T15:15:43.252Z,24.13
2022-10-24T15:18:31.612Z,24.03
2022-10-24T15:21:07.123Z,24.00
2022-10-24T15:23:37.982Z,23.88
2022-10-24T15:26:26.952Z,23.65
2022-10-24T15:28:55.327Z,23.63
2022-10-24T15:31:24.781Z,23.42
2022-10-24T15:33:51.518Z,23.43
2022-10-24T15:36:30.678Z,23.61
2022-10-24T15:39:27.686Z,23.50
2022-10-24T15:41:55.168Z,23.45
2022-10-24T15:44:25.582Z,23.32
2022-10-24T15:46:53.242Z,23.27
2022-10-24T15:49:19.951Z,23.34
2022-10-24T15:51:50.284Z,23.05
2022-10-24T15:54:20.367Z,23.17
2022-10-24T15:56:47.369Z,23.12
2022-10-24T15:59:14.543Z,23.16
2022-10-24T16:01:50.955Z,23.14
2022-10-24T16:04:18.453Z,23.07
2022-10-24T16:06:45.168Z,22.92
2022-10-24T16:09:18.128Z,22.94
2022-10-24T16:11:45.007Z,22.74
2022-10-24T16:14:17.100Z,22.70
2022-10-24T16:16:44.499Z,22.66
2022-10-24T16:19:11.500Z,22.54
2022-10-24T16:21:40.109Z,22.45
2022-10-24T16:24:07.982Z,22.23
2022-10-24T16:26:34.818Z,22.18
2022-10-24T16:29:01.616Z,22.21
2022-10-24T16:31:28.396Z,22.19
2022-10-24T16:33:55.061Z,22.07
2022-10-24T16:36:24.617Z,22.09
2022-10-24T16:38:52.102Z,21.99
2022-10-24T16:41:22.496Z,21.88
2022-10-24T16:43:50.402Z,21.79
2022-10-24T16:46:20.292Z,21.75
2022-10-24T16:48:47.520Z,21.67
2022-10-24T16:51:22.521Z,21.62
2022-10-24T16:53:49.619Z,21.65
2022-10-24T16:56:16.627Z,21.65
2022-10-24T16:58:43.670Z,21.55
2022-10-24T17:01:13.647Z,21.47
2022-10-24T17:03:42.423Z,21.48
2022-10-24T17:06:09.456Z,21.43
2022-10-24T17:08:36.274Z,21.40
2022-10-24T17:11:07.068Z,21.33
2022-10-24T17:13:39.308Z,21.35
2022-10-24T17:16:10.468Z,21.28
2022-10-24T17:18:37.885Z,21.35
2022-10-24T17:21:04.905Z,21.37
2022-10-24T17:23:32.013Z,21.39
2022-10-24T17:25:59.254Z,21.51
2022-10-24T17:28:30.950Z,21.37
2022-10-24T17:31:00.068Z,21.24
2022-10-24T17:33:27.270Z,21.39
2022-10-24T17:35:57.217Z,21.31
2022-10-24T17:38:45.390Z,21.33
2022-10-24T17:41:28.877Z,21.46
2022-10-24T17:43:55.781Z,21.29
2022-10-24T17:46:22.774Z,21.23
2022-10-24T17:48:50.542Z,21.36
2022-10-24T17:51:21.896Z,21.35
2022-10-24T17:53:48.998Z,21.28
2022-10-24T17:56:16.889Z,21.22
2022-10-24T17:58:46.621Z,21.23
2022-10-24T18:01:13.358Z,21.27
2022-10-24T18:03:40.259Z,21.26
2022-10-24T18:06:07.669Z,21.30
2022-10-24T18:08:34.458Z,21.10
2022-10-24T18:11:02.748Z,21.15
2022-10-24T18:13:29.899Z,21.18
2022-10-24T18:15:56.562Z,21.27
2022-10-24T18:18:23.303Z,21.24
2022-10-24T18:20:50.317Z,21.24
2022-10-24T18:23:17.350Z,21.27
2022-10-24T18:25:43.991Z,21.21
2022-10-24T18:28:10.641Z,21.02
2022-10-24T18:30:37.422Z,20.77
2022-10-24T18:33:04.327Z,20.80
2022-10-24T18:35:33.068Z,20.95
2022-10-24T18:37:59.903Z,20.91
2022-10-24T18:40:26.915Z,21.09
2022-10-24T18:42:58.509Z,20.98
2022-10-24T18:45:27.333Z,20.91
2022-10-24T18:47:54.379Z,20.91
2022-10-24T18:50:25.267Z,20.80
2022-10-24T18:52:58.213Z,20.79
2022-10-24T18:55:27.819Z,20.68
2022-10-24T18:57:55.030Z,20.75
2022-10-24T19:00:27.488Z,20.73
2022-10-24T19:03:23.673Z,20.44
2022-10-24T19:06:20.947Z,20.27
2022-10-24T19:08:47.722Z,20.19
2022-10-24T19:11:15.341Z,20.13
2022-10-24T19:13:44.701Z,20.18
2022-10-24T19:16:18.758Z,19.89
2022-10-24T19:18:57.261Z,20.14
2022-10-24T19:21:23.924Z,20.10
2022-10-24T19:23:51.101Z,20.11
2022-10-24T19:26:17.931Z,19.90
2022-10-24T19:28:44.899Z,19.73
2022-10-24T19:31:15.747Z,19.75
2022-10-24T19:33:42.983Z,19.92
2022-10-24T19:36:11.496Z,19.82
2022-10-24T19:38:39.049Z,19.71
2022-10-24T19:41:07.645Z,19.49
2022-10-24T19:43:34.394Z,19.62
2022-10-24T19:46:18.757Z,19.55
2022-10-24T19:48:51.101Z,19.52
2022-10-24T19:51:19.373Z,19.58
2022-10-24T19:53:46.990Z,19.50
2022-10-24T19:56:21.455Z,19.48
2022-10-24T19:58:50.973Z,19.52
2022-10-24T20:01:20.660Z,19.30
2022-10-24T20:03:48.857Z,19.57
2022-10-24T20:06:16.699Z,19.42
2022-10-24T20:08:45.165Z,19.45
2022-10-24T20:11:12.048Z,19.43
2022-10-24T20:13:38.667Z,19.34
2022-10-24T20:16:07.041Z,19.40
2022-10-24T20:18:35.546Z,19.29
2022-10-24T20:21:04.247Z,19.29
2022-10-24T20:23:31.137Z,19.29
2022-10-24T20:26:01.617Z,19.25
2022-10-24T20:28:28.663Z,19.32
2022-10-24T20:30:55.755Z,19.34
2022-10-24T20:33:22.462Z,19.18
2022-10-24T20:35:49.148Z,19.26
2022-10-24T20:38:15.817Z,19.09
2022-10-24T20:40:42.471Z,19.02
2022-10-24T20:43:09.236Z,18.99
2022-10-24T20:45:40.087Z,19.14
2022-10-24T20:48:06.952Z,19.06
2022-10-24T20:50:34.130Z,19.02
2022-10-24T20:53:00.857Z,19.05
2022-10-24T20:55:39.532Z,19.11
2022-10-24T20:58:13.657Z,19.15
2022-10-24T21:03:11.904Z,19.04
2022-10-24T21:05:38.685Z,18.98
2022-10-24T21:08:05.626Z,18.96
2022-10-24T21:10:32.301Z,19.14
2022-10-24T21:12:58.964Z,19.21
2022-10-24T21:15:25.621Z,19.03
2022-10-24T21:17:52.261Z,19.12
2022-10-24T21:20:18.961Z,19.18
2022-10-24T21:22:45.596Z,19.06
2022-10-24T21:25:12.284Z,19.00
2022-10-24T21:27:38.929Z,18.91
2022-10-24T21:30:07.953Z,18.98
2022-10-24T21:32:36.507Z,18.77
2022-10-24T21:35:03.350Z,18.87
2022-10-24T21:37:33.051Z,18.99
2022-10-24T21:39:59.666Z,19.02
2022-10-24T21:42:26.446Z,18.94
2022-10-24T21:44:53.138Z,18.84
2022-10-24T21:47:19.801Z,18.76
2022-10-24T21:49:46.402Z,18.81
2022-10-24T21:52:13.078Z,18.70
2022-10-24T21:54:39.717Z,18.63
2022-10-24T21:57:06.375Z,18.76
2022-10-24T21:59:33.050Z,18.74
2022-10-24T22:01:59.980Z,18.69
2022-10-24T22:04:27.294Z,18.78
2022-10-24T22:06:53.933Z,18.84
2022-10-24T22:09:23.775Z,18.96
2022-10-24T22:11:50.617Z,19.05
2022-10-24T22:14:17.953Z,19.08
2022-10-24T22:16:45.671Z,19.04
2022-10-24T22:19:13.131Z,18.89
2022-10-24T22:21:46.238Z,18.65
2022-10-24T22:24:19.114Z,18.83
2022-10-24T22:26:46.929Z,18.80
2022-10-24T22:29:16.463Z,18.74
2022-10-24T22:31:44.230Z,18.66
2022-10-24T22:34:15.161Z,18.77
2022-10-24T22:37:12.647Z,18.65
2022-10-24T22:39:40.264Z,18.68
2022-10-24T22:42:09.677Z,18.71
2022-10-24T22:44:36.649Z,18.79
2022-10-24T22:47:13.608Z,18.63
2022-10-24T22:50:05.048Z,18.67
2022-10-24T22:52:31.986Z,18.66
2022-10-24T22:54:59.002Z,18.54
2022-10-24T22:57:25.979Z,18.43
2022-10-24T22:59:52.969Z,18.52
2022-10-24T23:02:28.124Z,18.50
2022-10-24T23:05:03.720Z,18.59
2022-10-24T23:07:35.784Z,18.49
2022-10-24T23:10:02.459Z,18.23
2022-10-24T23:12:29.601Z,18.50
2022-10-24T23:14:56.487Z,18.45
2022-10-24T23:17:28.536Z,18.42
2022-10-24T23:19:56.723Z,18.42
2022-10-24T23:22:26.620Z,18.36
2022-10-24T23:24:56.319Z,18.35
2022-10-24T23:27:41.274Z,18.33
2022-10-24T23:30:16.310Z,18.28
2022-10-24T23:32:43.947Z,18.11
2022-10-24T23:35:13.546Z,17.99
2022-10-24T23:37:48.922Z,18.06
2022-10-24T23:40:26.842Z,18.01
2022-10-24T23:42:53.755Z,17.98
2022-10-24T23:45:23.476Z,17.93
2022-10-24T23:47:50.240Z,17.81
2022-10-24T23:50:35.785Z,17.80
2022-10-24T23:53:23.899Z,17.80
2022-10-24T23:55:50.843Z,17.75
2022-10-24T23:58:17.924Z,17.68
